Time;durP1;ratioP1;P1;durP2;ratioP2;P2;SDS_P1;SDS_P2;PMS_P1;PMS_P2;Temp;Humidity;BMP_temperature;BMP_pressure;BME280_temperature;BME280_humidity;BME280_pressure;Samples;Min_cycle;Max_cycle;Signal;HPM_P1;HPM_P2
2023/03/31 00:02:12;;;;;;;16.15;7.50;;;;;;;;;;5032215;28;20441;-77
2023/03/31 00:04:45;;;;;;;;;;;;;;;;;;5032801;28;20363;-77
2023/03/31 00:07:15;;;;;;;13.30;6.70;;;;;;;;;;5017350;28;19915;-78
2023/03/31 00:09:44;;;;;;;14.00;6.75;;;;;;;;;;5003617;28;20029;-76
2023/03/31 00:12:11;;;;;;;13.30;6.20;;;;;;;;;;5004650;28;20026;-78
2023/03/31 00:14:37;;;;;;;14.20;6.35;;;;;;;;;;5019444;28;20029;-78
2023/03/31 00:17:03;;;;;;;16.80;6.20;;;;;;;;;;5035663;28;20459;-79
2023/03/31 00:19:31;;;;;;;9.85;6.10;;;;;;;;;;5019385;28;20032;-79
2023/03/31 00:22:00;;;;;;;17.10;5.97;;;;;;;;;;5035708;28;20029;-79
2023/03/31 00:24:32;;;;;;;11.68;6.15;;;;;;;;;;5035722;28;20057;-76
2023/03/31 00:26:59;;;;;;;13.07;6.05;;;;;;;;;;5035797;28;20029;-76
2023/03/31 00:29:24;;;;;;;14.68;6.38;;;;;;;;;;5003210;28;20030;-78
2023/03/31 00:31:50;;;;;;;13.75;6.32;;;;;;;;;;5035755;28;20367;-79
2023/03/31 00:34:15;;;;;;;14.45;5.60;;;;;;;;;;5036729;28;20041;-78
2023/03/31 00:36:46;;;;;;;13.32;5.80;;;;;;;;;;5019027;28;20473;-78
2023/03/31 00:39:11;;;;;;;12.32;5.80;;;;;;;;;;5036696;28;20084;-79
2023/03/31 00:41:37;;;;;;;12.52;6.05;;;;;;;;;;5035691;28;20460;-78
2023/03/31 00:44:23;;;;;;;12.57;5.68;;;;;;;;;;5036669;28;20064;-78
2023/03/31 00:46:51;;;;;;;13.48;6.35;;;;;;;;;;5019408;28;20025;-78
2023/03/31 00:49:35;;;;;;;15.63;6.03;;;;;;;;;;5036630;28;20033;-79
2023/03/31 00:52:22;;;;;;;11.43;5.53;;;;;;;;;;5020664;28;20033;-79
2023/03/31 00:54:55;;;;;;;16.17;6.10;;;;;;;;;;5020207;28;20068;-77
2023/03/31 00:57:21;;;;;;;11.40;5.80;;;;;;;;;;4984916;28;20451;-79
2023/03/31 00:59:49;;;;;;;10.40;5.82;;;;;;;;;;4998928;28;20068;-79
2023/03/31 01:02:16;;;;;;;10.25;5.72;;;;;;;;;;5027930;28;20515;-76
2023/03/31 01:04:49;;;;;;;14.32;6.18;;;;;;;;;;5018315;28;20087;-77
2023/03/31 01:07:22;;;;;;;12.68;6.10;;;;;;;;;;5018775;28;20026;-76
2023/03/31 01:09:48;;;;;;;12.95;5.78;;;;;;;;;;5034988;28;20021;-78
2023/03/31 01:12:14;;;;;;;14.07;5.88;;;;;;;;;;5002040;28;20036;-78
2023/03/31 01:14:40;;;;;;;14.85;5.70;;;;;;;;;;5002110;28;20486;-78
2023/03/31 01:17:08;;;;;;;11.75;5.93;;;;;;;;;;5034639;28;20128;-78
2023/03/31 01:19:48;;;;;;;14.15;6.38;;;;;;;;;;5033230;28;20061;-78
2023/03/31 01:22:21;;;;;;;12.20;5.80;;;;;;;;;;5035972;28;20076;-78
2023/03/31 01:25:08;;;;;;;16.45;6.78;;;;;;;;;;5034504;28;20026;-77
2023/03/31 01:27:52;;;;;;;17.20;6.45;;;;;;;;;;5035925;28;20029;-78
2023/03/31 01:30:28;;;;;;;10.15;6.38;;;;;;;;;;5035748;28;20029;-77
2023/03/31 01:33:07;;;;;;;14.50;6.72;;;;;;;;;;5035673;28;20056;-78
2023/03/31 01:35:57;;;;;;;15.75;8.27;;;;;;;;;;5018276;28;20033;-78
2023/03/31 01:38:59;;;;;;;16.45;8.40;;;;;;;;;;5034349;28;20033;-78
2023/03/31 01:41:40;;;;;;;16.67;8.90;;;;;;;;;;5025808;28;20117;-78
2023/03/31 01:44:11;;;;;;;;;;;;;;;;;;5034778;28;20470;-78
2023/03/31 01:46:40;;;;;;;20.50;9.80;;;;;;;;;;5034537;28;19908;-79
2023/03/31 01:49:21;;;;;;;16.83;9.20;;;;;;;;;;5017468;28;20057;-77
2023/03/31 01:51:58;;;;;;;18.77;9.90;;;;;;;;;;5018460;28;20431;-78
2023/03/31 01:54:38;;;;;;;20.10;9.98;;;;;;;;;;5017490;28;20132;-77
2023/03/31 01:57:16;;;;;;;24.58;11.48;;;;;;;;;;4997114;28;20154;-78
2023/03/31 01:59:57;;;;;;;24.73;11.75;;;;;;;;;;5013909;28;20084;-78
2023/03/31 02:02:36;;;;;;;29.45;15.25;;;;;;;;;;5013849;28;20467;-79
2023/03/31 02:05:09;;;;;;;33.53;13.95;;;;;;;;;;4981742;28;20037;-79
2023/03/31 02:07:38;;;;;;;32.80;15.32;;;;;;;;;;4982389;28;20030;-79
2023/03/31 02:10:06;;;;;;;32.90;16.20;;;;;;;;;;5014253;28;20032;-78
2023/03/31 02:12:31;;;;;;;30.80;15.30;;;;;;;;;;4997881;28;20379;-79
2023/03/31 02:14:57;;;;;;;28.33;15.10;;;;;;;;;;5013974;28;20038;-79
2023/03/31 02:17:29;;;;;;;28.80;15.27;;;;;;;;;;5013730;28;20375;-79
2023/03/31 02:19:56;;;;;;;29.73;15.15;;;;;;;;;;5015401;28;20379;-78
2023/03/31 02:22:21;;;;;;;38.70;16.08;;;;;;;;;;4997399;28;20026;-78
2023/03/31 02:24:47;;;;;;;31.55;15.20;;;;;;;;;;5013879;28;20095;-80
2023/03/31 02:27:21;;;;;;;29.58;15.63;;;;;;;;;;5013708;28;20068;-80
2023/03/31 02:29:47;;;;;;;26.17;15.30;;;;;;;;;;5013453;28;20060;-80
2023/03/31 02:32:22;;;;;;;30.48;15.18;;;;;;;;;;4997168;28;20394;-80
2023/03/31 02:34:47;;;;;;;46.53;19.65;;;;;;;;;;5013753;28;20056;-80
2023/03/31 02:37:13;;;;;;;36.35;19.02;;;;;;;;;;4981216;28;20467;-79
2023/03/31 02:39:39;;;;;;;39.17;18.55;;;;;;;;;;4997114;28;20030;-80
2023/03/31 02:42:07;;;;;;;40.70;18.42;;;;;;;;;;4997513;28;20022;-79
2023/03/31 02:44:34;;;;;;;39.78;18.40;;;;;;;;;;4997657;28;20026;-80
2023/03/31 02:47:00;;;;;;;39.80;19.48;;;;;;;;;;5013143;28;20026;-80
2023/03/31 02:49:25;;;;;;;47.35;21.65;;;;;;;;;;4997090;28;20451;-80
2023/03/31 02:52:09;;;;;;;42.53;21.38;;;;;;;;;;4996932;28;20026;-80
2023/03/31 02:54:53;;;;;;;38.90;19.40;;;;;;;;;;5014444;28;20030;-79
2023/03/31 02:57:35;;;;;;;37.00;18.67;;;;;;;;;;5014271;28;20050;-79
2023/03/31 03:00:33;;;;;;;44.58;21.80;;;;;;;;;;5013212;28;20030;-79
2023/03/31 03:03:32;;;;;;;78.50;28.45;;;;;;;;;;4982891;28;20030;-80
2023/03/31 03:06:28;;;;;;;58.00;22.55;;;;;;;;;;5014529;28;20164;-79
2023/03/31 03:09:13;;;;;;;54.90;20.60;;;;;;;;;;5014230;28;20032;-79
2023/03/31 03:11:38;;;;;;;52.95;21.35;;;;;;;;;;5014490;28;20467;-79
2023/03/31 03:14:06;;;;;;;44.45;19.45;;;;;;;;;;5014008;28;20044;-79
2023/03/31 03:16:43;;;;;;;44.60;18.92;;;;;;;;;;4996704;28;20034;-80
2023/03/31 03:19:08;;;;;;;41.25;17.48;;;;;;;;;;4996724;28;20032;-79
2023/03/31 03:21:34;;;;;;;40.63;18.25;;;;;;;;;;4996871;28;20407;-80
2023/03/31 03:24:00;;;;;;;37.33;17.90;;;;;;;;;;4996770;28;20037;-79
2023/03/31 03:26:29;;;;;;;47.30;19.15;;;;;;;;;;4996677;28;20120;-80
2023/03/31 03:28:55;;;;;;;45.08;18.08;;;;;;;;;;4996974;28;20032;-79
2023/03/31 03:31:22;;;;;;;44.97;19.98;;;;;;;;;;5012535;28;20026;-80
2023/03/31 03:33:51;;;;;;;38.50;17.48;;;;;;;;;;4996613;28;20033;-79
2023/03/31 03:36:16;;;;;;;45.00;19.42;;;;;;;;;;4980578;28;20029;-79
2023/03/31 03:38:41;;;;;;;50.42;19.98;;;;;;;;;;4980380;28;20056;-79
2023/03/31 03:41:07;;;;;;;50.38;20.52;;;;;;;;;;4996793;28;20033;-79
2023/03/31 03:43:32;;;;;;;41.90;19.05;;;;;;;;;;4983807;28;20038;-81
2023/03/31 03:45:58;;;;;;;47.95;19.70;;;;;;;;;;5017663;28;20033;-80
2023/03/31 03:48:23;;;;;;;54.63;20.08;;;;;;;;;;5016681;28;20036;-79
2023/03/31 03:50:49;;;;;;;55.00;19.20;;;;;;;;;;5016838;28;20428;-80
2023/03/31 03:53:14;;;;;;;45.13;19.48;;;;;;;;;;5017662;28;20117;-79
2023/03/31 03:55:40;;;;;;;47.33;18.48;;;;;;;;;;5017764;28;20030;-80
2023/03/31 03:58:06;;;;;;;45.70;18.50;;;;;;;;;;5017602;28;20042;-80
2023/03/31 04:00:31;;;;;;;53.60;19.70;;;;;;;;;;5017715;28;20057;-80
2023/03/31 04:02:56;;;;;;;53.90;20.42;;;;;;;;;;5016445;28;20028;-79
2023/03/31 04:05:22;;;;;;;58.53;21.80;;;;;;;;;;5016623;28;20363;-80
2023/03/31 04:07:47;;;;;;;57.53;22.25;;;;;;;;;;5000229;28;20344;-79
2023/03/31 04:10:13;;;;;;;48.92;19.75;;;;;;;;;;5016322;28;20052;-78
2023/03/31 04:12:38;;;;;;;52.55;19.25;;;;;;;;;;5000494;28;20042;-78
2023/03/31 04:15:05;;;;;;;42.90;18.23;;;;;;;;;;5015715;28;20034;-78
2023/03/31 04:17:33;;;;;;;45.05;17.95;;;;;;;;;;5016224;28;20104;-78
2023/03/31 04:20:08;;;;;;;46.85;18.83;;;;;;;;;;5000250;28;20033;-78
2023/03/31 04:22:34;;;;;;;47.00;19.77;;;;;;;;;;5016171;28;20037;-78
2023/03/31 04:25:09;;;;;;;56.00;22.00;;;;;;;;;;4999960;28;20038;-79
2023/03/31 04:27:35;;;;;;;55.30;21.77;;;;;;;;;;5015945;28;20120;-78
2023/03/31 04:30:00;;;;;;;53.60;21.25;;;;;;;;;;5015751;28;20105;-79
2023/03/31 04:32:27;;;;;;;58.47;20.73;;;;;;;;;;5016989;28;20113;-78
2023/03/31 04:35:01;;;;;;;54.25;21.13;;;;;;;;;;5017078;28;20037;-79
2023/03/31 04:37:33;;;;;;;61.03;22.00;;;;;;;;;;5016907;28;20026;-78
2023/03/31 04:40:08;;;;;;;62.28;22.30;;;;;;;;;;5016827;28;20052;-80
2023/03/31 04:42:33;;;;;;;65.38;24.00;;;;;;;;;;5000767;28;20360;-78
2023/03/31 04:44:59;;;;;;;68.10;25.17;;;;;;;;;;5015548;28;20056;-76
2023/03/31 04:47:24;;;;;;;75.00;26.85;;;;;;;;;;4996718;28;20355;-80
2023/03/31 04:49:50;;;;;;;79.57;27.17;;;;;;;;;;5015643;28;20360;-78
2023/03/31 04:52:15;;;;;;;87.82;29.33;;;;;;;;;;5014471;28;20494;-77
2023/03/31 04:54:41;;;;;;;80.63;30.55;;;;;;;;;;4996074;28;20074;-79
2023/03/31 04:57:12;;;;;;;89.50;32.45;;;;;;;;;;5007151;28;20449;-79
2023/03/31 04:59:41;;;;;;;97.65;33.22;;;;;;;;;;5016833;28;20093;-80
2023/03/31 05:02:07;;;;;;;84.32;32.70;;;;;;;;;;4986039;28;20081;-80
2023/03/31 05:04:41;;;;;;;93.60;34.03;;;;;;;;;;4981579;28;20033;-80
2023/03/31 05:07:12;;;;;;;93.60;31.83;;;;;;;;;;4996315;28;20038;-80
2023/03/31 05:09:40;;;;;;;77.80;25.65;;;;;;;;;;4997151;28;20041;-80
2023/03/31 05:12:06;;;;;;;77.50;27.08;;;;;;;;;;5011593;28;20103;-79
2023/03/31 05:14:31;;;;;;;66.95;24.65;;;;;;;;;;5011947;28;20462;-79
2023/03/31 05:16:57;;;;;;;69.10;23.83;;;;;;;;;;5012952;28;20034;-80
2023/03/31 05:19:23;;;;;;;60.78;21.27;;;;;;;;;;5010045;28;20057;-79
2023/03/31 05:21:49;;;;;;;59.55;21.38;;;;;;;;;;4990213;28;20077;-80
2023/03/31 05:24:37;;;;;;;52.10;18.83;;;;;;;;;;4993452;28;20420;-79
2023/03/31 05:27:03;;;;;;;39.83;16.05;;;;;;;;;;4998002;28;20034;-78
2023/03/31 05:29:29;;;;;;;35.75;13.60;;;;;;;;;;5000260;28;20083;-78
2023/03/31 05:31:55;;;;;;;36.10;14.57;;;;;;;;;;5005307;28;20081;-80
2023/03/31 05:34:20;;;;;;;35.65;14.27;;;;;;;;;;5011870;28;20064;-81
2023/03/31 05:36:52;;;;;;;38.63;14.43;;;;;;;;;;5016908;28;20048;-80
2023/03/31 05:39:17;;;;;;;36.72;12.95;;;;;;;;;;5000039;28;20057;-80
2023/03/31 05:41:43;;;;;;;32.28;12.65;;;;;;;;;;5012520;28;20030;-79
2023/03/31 05:44:08;;;;;;;34.88;12.13;;;;;;;;;;5014383;28;20045;-79
2023/03/31 05:47:09;;;;;;;27.38;11.07;;;;;;;;;;5013278;28;20040;-80
2023/03/31 05:53:24;;;;;;;35.25;14.30;;;;;;;;;;5051600;23;20064;-81
2023/03/31 05:55:58;;;;;;;37.42;13.10;;;;;;;;;;5004770;23;20161;-79
2023/03/31 05:58:24;;;;;;;38.15;13.85;;;;;;;;;;4996239;28;20047;-80
2023/03/31 06:01:25;;;;;;;40.42;14.63;;;;;;;;;;4993771;28;20021;-82
2023/03/31 06:04:06;;;;;;;39.83;14.77;;;;;;;;;;4998973;28;20135;-83
2023/03/31 06:06:36;;;;;;;41.80;15.02;;;;;;;;;;5038537;23;20057;-80
2023/03/31 06:09:02;;;;;;;;;;;;;;;;;;5011249;28;20061;-81
2023/03/31 06:11:33;;;;;;;37.55;14.43;;;;;;;;;;5022449;28;20289;-81
2023/03/31 06:14:41;;;;;;;33.50;14.93;;;;;;;;;;5034096;28;20136;-83
2023/03/31 06:17:07;;;;;;;20.30;10.70;;;;;;;;;;5015912;28;20382;-82
2023/03/31 06:19:35;;;;;;;27.80;11.43;;;;;;;;;;5011321;28;20041;-84
2023/03/31 06:22:26;;;;;;;20.60;10.23;;;;;;;;;;5026130;28;20025;-82
2023/03/31 06:28:21;;;;;;;20.48;9.35;;;;;;;;;;5031655;28;20044;-81
2023/03/31 06:30:46;;;;;;;22.92;9.25;;;;;;;;;;5020912;28;20029;-83
2023/03/31 06:33:15;;;;;;;20.45;9.48;;;;;;;;;;5020579;28;20039;-79
2023/03/31 06:35:40;;;;;;;20.35;9.43;;;;;;;;;;5022085;28;20073;-82
2023/03/31 06:38:06;;;;;;;20.98;9.25;;;;;;;;;;5034673;28;20406;-80
2023/03/31 06:40:32;;;;;;;20.02;9.27;;;;;;;;;;5000855;28;20034;-81
2023/03/31 06:43:01;;;;;;;16.45;7.88;;;;;;;;;;5021439;28;20044;-81
2023/03/31 06:46:01;;;;;;;12.20;6.78;;;;;;;;;;5035147;28;20044;-82
2023/03/31 06:48:26;;;;;;;16.73;7.28;;;;;;;;;;5030900;28;20041;-82
2023/03/31 06:51:06;;;;;;;18.25;7.97;;;;;;;;;;5031449;28;20037;-81
2023/03/31 06:53:32;;;;;;;14.33;7.83;;;;;;;;;;5022425;28;20659;-79
2023/03/31 06:56:00;;;;;;;17.15;8.05;;;;;;;;;;5025576;28;20037;-80
2023/03/31 07:01:38;;;;;;;13.27;7.30;;;;;;;;;;5057631;22;20065;-79
2023/03/31 07:04:15;;;;;;;19.77;7.75;;;;;;;;;;5044321;28;20025;-81
2023/03/31 07:06:41;;;;;;;18.75;8.13;;;;;;;;;;5043994;28;20043;-81
2023/03/31 07:09:10;;;;;;;16.40;7.82;;;;;;;;;;5051128;22;20194;-81
2023/03/31 07:11:35;;;;;;;15.40;7.13;;;;;;;;;;5048031;28;20457;-82
2023/03/31 07:14:01;;;;;;;21.27;7.38;;;;;;;;;;5047313;28;20067;-80
2023/03/31 07:16:26;;;;;;;14.90;7.40;;;;;;;;;;5042816;28;20025;-82
2023/03/31 07:18:53;;;;;;;19.02;7.97;;;;;;;;;;5046079;28;20025;-81
2023/03/31 07:21:19;;;;;;;21.48;7.75;;;;;;;;;;5045096;28;20021;-79
2023/03/31 07:23:51;;;;;;;12.55;6.32;;;;;;;;;;5050064;28;20516;-81
2023/03/31 07:26:16;;;;;;;16.13;6.90;;;;;;;;;;5044506;28;20051;-82
2023/03/31 07:28:42;;;;;;;19.13;7.13;;;;;;;;;;5047310;28;20631;-81
2023/03/31 07:31:16;;;;;;;17.15;8.20;;;;;;;;;;5048279;28;20028;-82
2023/03/31 07:33:45;;;;;;;14.25;6.57;;;;;;;;;;5041354;28;20037;-81
2023/03/31 07:36:12;;;;;;;12.48;6.55;;;;;;;;;;5029473;28;20040;-82
2023/03/31 07:38:37;;;;;;;13.02;6.57;;;;;;;;;;5022423;28;20045;-78
2023/03/31 07:41:03;;;;;;;13.55;7.18;;;;;;;;;;5031310;28;20025;-82
2023/03/31 07:43:28;;;;;;;15.93;6.28;;;;;;;;;;5042705;28;20048;-81
2023/03/31 07:45:54;;;;;;;15.43;7.20;;;;;;;;;;5048673;28;20497;-80
2023/03/31 07:48:19;;;;;;;16.17;6.55;;;;;;;;;;5044040;28;20053;-81
2023/03/31 07:50:45;;;;;;;20.05;7.60;;;;;;;;;;5046689;28;20033;-80
2023/03/31 07:53:13;;;;;;;17.08;6.40;;;;;;;;;;5032502;28;20033;-82
2023/03/31 07:55:39;;;;;;;18.98;6.68;;;;;;;;;;5040764;28;20033;-81
2023/03/31 07:58:25;;;;;;;18.42;7.20;;;;;;;;;;5046832;28;20417;-83
2023/03/31 08:00:54;;;;;;;20.92;7.18;;;;;;;;;;5044584;28;20077;-80
2023/03/31 08:03:20;;;;;;;22.30;7.17;;;;;;;;;;5027696;28;20045;-81
2023/03/31 08:13:26;;;;;;;25.98;8.88;;;;;;;;;;5060312;22;20063;-81
2023/03/31 08:15:51;;;;;;;22.65;8.52;;;;;;;;;;5048997;28;20067;-82
2023/03/31 08:18:35;;;;;;;19.08;9.13;;;;;;;;;;5048633;28;20048;-80
2023/03/31 08:21:02;;;;;;;27.85;9.93;;;;;;;;;;5050992;28;20045;-80
2023/03/31 08:23:28;;;;;;;24.30;10.55;;;;;;;;;;5048606;28;20028;-81
2023/03/31 08:25:53;;;;;;;23.92;10.10;;;;;;;;;;5048665;28;20031;-81
2023/03/31 08:28:19;;;;;;;17.98;8.75;;;;;;;;;;5067338;28;20036;-81
2023/03/31 08:30:45;;;;;;;25.38;10.63;;;;;;;;;;5072298;28;20381;-82
2023/03/31 08:33:19;;;;;;;28.08;10.40;;;;;;;;;;5072206;28;20461;-82
2023/03/31 08:35:45;;;;;;;18.38;9.13;;;;;;;;;;5071611;28;20450;-81
2023/03/31 08:41:52;;;;;;;22.02;9.98;;;;;;;;;;4949427;29;20039;-81
2023/03/31 08:45:03;;;;;;;20.55;9.00;;;;;;;;;;4975162;28;20039;-82
2023/03/31 08:47:35;;;;;;;29.63;8.95;;;;;;;;;;5014370;28;20040;-82
2023/03/31 08:50:29;;;;;;;22.65;9.32;;;;;;;;;;5021442;28;20043;-79
2023/03/31 08:53:06;;;;;;;22.15;9.27;;;;;;;;;;5059083;28;20463;-81
2023/03/31 08:55:51;;;;;;;26.38;9.00;;;;;;;;;;5054080;28;20032;-83
2023/03/31 08:58:28;;;;;;;26.25;9.27;;;;;;;;;;5042809;28;20079;-82
2023/03/31 09:01:25;;;;;;;18.23;9.60;;;;;;;;;;5050390;28;20024;-78
2023/03/31 09:04:09;;;;;;;19.95;9.80;;;;;;;;;;5070533;28;20029;-82
2023/03/31 09:07:03;;;;;;;19.02;8.38;;;;;;;;;;5059588;28;20025;-82
2023/03/31 09:09:31;;;;;;;14.63;8.75;;;;;;;;;;5054483;28;20024;-83
2023/03/31 09:11:59;;;;;;;23.88;9.02;;;;;;;;;;5055172;28;20040;-82
2023/03/31 09:14:33;;;;;;;14.45;8.55;;;;;;;;;;5037359;28;20063;-81
2023/03/31 09:17:38;;;;;;;16.90;9.10;;;;;;;;;;5072306;28;20029;-82
2023/03/31 09:20:13;;;;;;;24.65;10.27;;;;;;;;;;4997308;28;20037;-80
2023/03/31 09:22:46;;;;;;;21.33;10.77;;;;;;;;;;5035258;28;20090;-81
2023/03/31 09:25:17;;;;;;;19.80;10.82;;;;;;;;;;5037876;28;20025;-81
2023/03/31 09:27:43;;;;;;;12.30;7.93;;;;;;;;;;5054077;28;20196;-81
2023/03/31 09:30:52;;;;;;;19.77;10.43;;;;;;;;;;5027841;28;20060;-82
2023/03/31 09:33:32;;;;;;;19.27;10.32;;;;;;;;;;5040969;28;20470;-81
2023/03/31 09:36:00;;;;;;;16.95;9.13;;;;;;;;;;5063674;28;20029;-82
2023/03/31 09:38:28;;;;;;;17.52;10.25;;;;;;;;;;5045697;28;20029;-81
2023/03/31 09:40:55;;;;;;;16.58;8.18;;;;;;;;;;5028698;28;20040;-80
2023/03/31 09:43:25;;;;;;;15.52;6.88;;;;;;;;;;5027327;28;20085;-81
2023/03/31 09:45:51;;;;;;;22.92;8.40;;;;;;;;;;5039793;28;20036;-81
2023/03/31 09:48:22;;;;;;;16.88;9.32;;;;;;;;;;5055399;28;20483;-79
2023/03/31 09:51:03;;;;;;;19.40;9.00;;;;;;;;;;5044499;28;20028;-81
2023/03/31 09:53:33;;;;;;;19.98;9.88;;;;;;;;;;5052174;28;20017;-77
2023/03/31 09:56:03;;;;;;;22.23;11.45;;;;;;;;;;5056291;28;20086;-77
2023/03/31 09:58:30;;;;;;;22.15;10.20;;;;;;;;;;5075327;28;20397;-81
2023/03/31 10:01:00;;;;;;;17.95;8.95;;;;;;;;;;5055890;28;20035;-80
2023/03/31 10:03:28;;;;;;;19.85;10.15;;;;;;;;;;5054113;28;20024;-81
2023/03/31 10:05:55;;;;;;;18.50;9.93;;;;;;;;;;5034126;28;20457;-79
2023/03/31 10:08:21;;;;;;;19.88;8.93;;;;;;;;;;5035532;28;20093;-81
2023/03/31 10:10:50;;;;;;;21.10;9.50;;;;;;;;;;5052025;28;20028;-80
2023/03/31 10:13:18;;;;;;;17.98;8.63;;;;;;;;;;5042037;28;20040;-82
2023/03/31 10:15:44;;;;;;;24.58;9.23;;;;;;;;;;5041509;28;20451;-81
2023/03/31 10:18:14;;;;;;;17.92;9.25;;;;;;;;;;5073858;28;20035;-81
2023/03/31 10:20:49;;;;;;;15.95;8.68;;;;;;;;;;5075943;28;20084;-81
2023/03/31 10:23:25;;;;;;;22.85;9.98;;;;;;;;;;5042742;28;20386;-81
2023/03/31 10:25:51;;;;;;;24.23;10.52;;;;;;;;;;5055604;28;20024;-80
2023/03/31 10:28:18;;;;;;;21.02;10.80;;;;;;;;;;5055398;28;20387;-80
2023/03/31 10:31:01;;;;;;;24.88;10.27;;;;;;;;;;5055143;28;20025;-81
2023/03/31 10:33:29;;;;;;;23.50;9.90;;;;;;;;;;5036635;28;20025;-79
2023/03/31 10:35:57;;;;;;;20.35;10.25;;;;;;;;;;5057743;28;20044;-80
2023/03/31 10:38:28;;;;;;;18.08;10.68;;;;;;;;;;5024741;28;20036;-81
2023/03/31 10:41:03;;;;;;;23.00;11.23;;;;;;;;;;5003641;28;20033;-81
2023/03/31 10:43:39;;;;;;;24.23;10.70;;;;;;;;;;5037902;28;20044;-81
2023/03/31 10:46:04;;;;;;;23.35;10.77;;;;;;;;;;5038568;28;20033;-81
2023/03/31 10:48:31;;;;;;;20.52;9.93;;;;;;;;;;5024934;28;20037;-81
2023/03/31 10:51:05;;;;;;;20.92;9.48;;;;;;;;;;5041764;28;20033;-81
2023/03/31 10:53:39;;;;;;;20.20;9.95;;;;;;;;;;5067716;28;20521;-80
2023/03/31 10:56:23;;;;;;;20.00;10.82;;;;;;;;;;5031487;28;20470;-81
2023/03/31 10:58:59;;;;;;;17.50;10.38;;;;;;;;;;5032595;28;20025;-81
2023/03/31 11:02:02;;;;;;;29.13;10.32;;;;;;;;;;5014795;28;20033;-81
2023/03/31 11:04:33;;;;;;;27.60;11.50;;;;;;;;;;5049248;28;20304;-80
2023/03/31 11:07:43;;;;;;;20.42;11.30;;;;;;;;;;5032625;28;20649;-81
2023/03/31 11:10:30;;;;;;;;;;;;;;;;;;4997842;28;20289;-80
2023/03/31 11:13:06;;;;;;;22.80;10.60;;;;;;;;;;4996746;28;20271;-80
2023/03/31 11:15:43;;;;;;;22.25;9.60;;;;;;;;;;5046630;28;20130;-78
2023/03/31 11:18:26;;;;;;;18.63;9.27;;;;;;;;;;5048032;28;20044;-81
2023/03/31 11:20:58;;;;;;;22.42;10.45;;;;;;;;;;5062295;28;20025;-79
2023/03/31 11:23:36;;;;;;;25.80;10.55;;;;;;;;;;5062591;28;20055;-80
2023/03/31 11:26:10;;;;;;;26.27;11.40;;;;;;;;;;5080669;28;20064;-80
2023/03/31 11:28:57;;;;;;;26.85;12.07;;;;;;;;;;5047936;28;20029;-81
2023/03/31 11:31:32;;;;;;;18.83;10.50;;;;;;;;;;5062204;28;20032;-80
2023/03/31 11:34:14;;;;;;;26.92;10.77;;;;;;;;;;5046564;28;20055;-81
2023/03/31 11:36:42;;;;;;;22.63;10.82;;;;;;;;;;5037998;28;20483;-81
2023/03/31 11:39:46;;;;;;;30.65;10.77;;;;;;;;;;5055463;28;20036;-81
2023/03/31 11:42:41;;;;;;;25.52;12.57;;;;;;;;;;5052701;28;20040;-81
2023/03/31 11:45:18;;;;;;;22.90;10.73;;;;;;;;;;5051113;28;20448;-81
2023/03/31 11:47:45;;;;;;;28.65;11.20;;;;;;;;;;5039539;28;20468;-81
2023/03/31 11:50:13;;;;;;;28.73;10.82;;;;;;;;;;5023171;28;20025;-81
2023/03/31 11:52:40;;;;;;;21.65;10.80;;;;;;;;;;5039821;28;20396;-81
2023/03/31 11:55:14;;;;;;;27.23;10.82;;;;;;;;;;5039429;28;20400;-81
2023/03/31 11:57:55;;;;;;;24.05;10.20;;;;;;;;;;5039019;28;20523;-81
2023/03/31 12:00:23;;;;;;;26.13;11.00;;;;;;;;;;5040538;28;20032;-80
2023/03/31 12:03:00;;;;;;;21.63;10.25;;;;;;;;;;5056496;28;20033;-82
2023/03/31 12:05:26;;;;;;;23.58;10.63;;;;;;;;;;5077355;28;20449;-81
2023/03/31 12:08:05;;;;;;;20.90;9.43;;;;;;;;;;5059677;28;20116;-79
2023/03/31 12:10:35;;;;;;;19.70;9.95;;;;;;;;;;5059452;28;20035;-80
2023/03/31 12:13:19;;;;;;;24.52;9.73;;;;;;;;;;5039952;28;20044;-79
2023/03/31 12:16:01;;;;;;;24.92;9.20;;;;;;;;;;5024649;28;20025;-80
2023/03/31 12:18:34;;;;;;;22.13;9.55;;;;;;;;;;5041309;28;20083;-81
2023/03/31 12:21:01;;;;;;;21.25;10.43;;;;;;;;;;5007479;28;20373;-81
2023/03/31 12:23:29;;;;;;;22.98;9.80;;;;;;;;;;5039030;28;20061;-82
2023/03/31 12:26:01;;;;;;;25.92;9.60;;;;;;;;;;5022939;28;20025;-80
2023/03/31 12:28:26;;;;;;;22.55;9.13;;;;;;;;;;5038902;28;20465;-80
2023/03/31 12:30:52;;;;;;;23.48;9.65;;;;;;;;;;5038786;28;20029;-80
2023/03/31 12:33:26;;;;;;;21.98;9.90;;;;;;;;;;5022625;28;20082;-80
2023/03/31 12:36:00;;;;;;;26.17;9.77;;;;;;;;;;5022650;28;20024;-82
2023/03/31 12:38:51;;;;;;;28.52;10.68;;;;;;;;;;5056408;28;20025;-78
2023/03/31 12:41:55;;;;;;;23.05;9.68;;;;;;;;;;5056238;28;20435;-80
2023/03/31 12:44:55;;;;;;;28.05;9.88;;;;;;;;;;5008715;28;20062;-81
2023/03/31 12:47:46;;;;;;;27.20;9.65;;;;;;;;;;5022100;28;20123;-79
2023/03/31 12:50:22;;;;;;;25.70;9.82;;;;;;;;;;5022678;28;20071;-78
2023/03/31 12:53:00;;;;;;;59.67;25.15;;;;;;;;;;5038873;28;20410;-79
2023/03/31 12:55:31;;;;;;;25.58;9.88;;;;;;;;;;5038148;28;20343;-80
2023/03/31 12:58:28;;;;;;;20.80;9.38;;;;;;;;;;5056169;28;20047;-80
2023/03/31 13:01:15;;;;;;;20.45;9.43;;;;;;;;;;5056792;28;20028;-82
2023/03/31 13:04:11;;;;;;;21.17;9.45;;;;;;;;;;5076501;28;20415;-82
2023/03/31 13:06:36;;;;;;;18.13;8.63;;;;;;;;;;5074951;28;20051;-81
2023/03/31 13:09:10;;;;;;;23.63;9.75;;;;;;;;;;5076090;28;20033;-82
2023/03/31 13:11:46;;;;;;;23.92;9.23;;;;;;;;;;5042809;28;20158;-81
2023/03/31 13:14:35;;;;;;;18.80;9.77;;;;;;;;;;5075012;28;20041;-81
2023/03/31 13:17:23;;;;;;;21.00;9.38;;;;;;;;;;5057849;28;20026;-81
2023/03/31 13:19:48;;;;;;;27.75;9.57;;;;;;;;;;5057513;28;20029;-82
2023/03/31 13:22:27;;;;;;;20.50;8.82;;;;;;;;;;5041072;28;20028;-81
2023/03/31 13:24:53;;;;;;;20.25;9.15;;;;;;;;;;5057534;28;20028;-81
2023/03/31 13:27:30;;;;;;;21.48;8.30;;;;;;;;;;5057650;28;20039;-81
2023/03/31 13:29:55;;;;;;;24.05;9.68;;;;;;;;;;5040977;28;20428;-81
2023/03/31 13:32:22;;;;;;;19.35;8.00;;;;;;;;;;5057539;28;20029;-81
2023/03/31 13:34:51;;;;;;;19.30;7.50;;;;;;;;;;5057759;28;20028;-81
2023/03/31 13:37:44;;;;;;;24.15;8.75;;;;;;;;;;5075381;28;20056;-81
2023/03/31 13:40:34;;;;;;;16.88;8.10;;;;;;;;;;5074922;28;20460;-81
2023/03/31 13:43:29;;;;;;;16.75;7.97;;;;;;;;;;5075230;28;20074;-81
2023/03/31 13:46:35;;;;;;;22.92;8.05;;;;;;;;;;5052766;28;20052;-81
2023/03/31 13:49:35;;;;;;;17.58;8.35;;;;;;;;;;5074005;28;20020;-82
2023/03/31 13:52:04;;;;;;;21.30;7.07;;;;;;;;;;5057311;28;20462;-79
2023/03/31 13:55:07;;;;;;;22.55;7.55;;;;;;;;;;5055533;28;20939;-82
2023/03/31 13:57:55;;;;;;;21.08;7.43;;;;;;;;;;5073476;28;20035;-81
2023/03/31 14:00:30;;;;;;;19.35;8.18;;;;;;;;;;5057782;28;20043;-79
2023/03/31 14:03:23;;;;;;;23.33;8.25;;;;;;;;;;5055331;28;20044;-80
2023/03/31 14:06:17;;;;;;;18.75;8.90;;;;;;;;;;5055173;28;20453;-81
2023/03/31 14:09:13;;;;;;;22.23;9.27;;;;;;;;;;5073834;28;20035;-81
2023/03/31 14:11:38;;;;;;;24.98;9.48;;;;;;;;;;5045782;28;20066;-80
2023/03/31 14:14:12;;;;;;;25.10;9.15;;;;;;;;;;5024127;28;20028;-81
2023/03/31 14:16:47;;;;;;;31.00;10.13;;;;;;;;;;5055238;28;20028;-81
2023/03/31 14:19:46;;;;;;;20.38;9.45;;;;;;;;;;5040929;28;20461;-80
2023/03/31 14:22:21;;;;;;;26.60;9.63;;;;;;;;;;5059343;28;20408;-81
2023/03/31 14:25:09;;;;;;;22.15;8.25;;;;;;;;;;5056599;28;20470;-81
2023/03/31 14:27:49;;;;;;;24.95;8.85;;;;;;;;;;5074418;28;20052;-80
2023/03/31 14:30:28;;;;;;;23.48;9.57;;;;;;;;;;5074503;28;20087;-82
2023/03/31 14:33:15;;;;;;;38.58;10.73;;;;;;;;;;5074558;28;20431;-82
2023/03/31 14:36:00;;;;;;;27.05;9.82;;;;;;;;;;5056467;28;20492;-80
2023/03/31 14:38:27;;;;;;;24.70;9.52;;;;;;;;;;5024941;28;20036;-82
2023/03/31 14:40:55;;;;;;;31.88;9.75;;;;;;;;;;5040021;28;20556;-80
2023/03/31 14:43:22;;;;;;;19.15;8.75;;;;;;;;;;5040517;28;20120;-80
2023/03/31 14:45:56;;;;;;;22.48;8.23;;;;;;;;;;5056734;28;20040;-80
2023/03/31 14:48:21;;;;;;;20.42;9.63;;;;;;;;;;5057302;28;20033;-80
2023/03/31 14:50:47;;;;;;;22.48;10.00;;;;;;;;;;5056388;28;20116;-81
2023/03/31 14:53:16;;;;;;;25.70;8.98;;;;;;;;;;5073939;28;20134;-81
2023/03/31 14:55:42;;;;;;;23.15;8.60;;;;;;;;;;5056140;28;20434;-80
2023/03/31 14:58:08;;;;;;;15.98;7.50;;;;;;;;;;5074078;28;20083;-82
2023/03/31 15:00:33;;;;;;;24.95;8.07;;;;;;;;;;5056324;28;20054;-79
2023/03/31 15:02:59;;;;;;;18.27;7.35;;;;;;;;;;5023522;28;20033;-81
2023/03/31 15:05:35;;;;;;;18.13;7.78;;;;;;;;;;5056341;28;20036;-79
2023/03/31 15:08:07;;;;;;;23.73;8.55;;;;;;;;;;5073858;28;20385;-82
2023/03/31 15:10:37;;;;;;;28.63;8.65;;;;;;;;;;5040047;28;20024;-80
2023/03/31 15:13:10;;;;;;;18.17;8.30;;;;;;;;;;5023395;28;20079;-80
2023/03/31 15:15:35;;;;;;;24.67;9.13;;;;;;;;;;5073907;28;20036;-80
2023/03/31 15:18:01;;;;;;;30.33;10.02;;;;;;;;;;5039496;28;20371;-80
2023/03/31 15:20:33;;;;;;;57.45;20.42;;;;;;;;;;5025405;28;20032;-80
2023/03/31 15:23:00;;;;;;;53.15;32.17;;;;;;;;;;5039982;28;20024;-79
2023/03/31 15:25:36;;;;;;;67.70;35.40;;;;;;;;;;5073665;28;20082;-80